Hauptseite
METAR-TAF:

METAR-TAF

Flughäfen :

Flughafen Bern-Belp

Bern, Schweiz

Breite: 46-55N, Länge: 007-30E, Höhe: 505 m

Beobachtung

Neuester Wetterbericht von vor 33 Minuten, um 01:50 UTC
Wind 1 kt aus unterschiedlichen Richtungen
Temperatur 0°C
Luftfeuchtigkeit 93%
Luftdruck 1022 hPa
Sichtweite: 5000 m

METAR: LSZB 250150Z AUTO VRB01KT 5000 NCD 00/M01 Q1022

Zeit: 03:23 (02:23 UTC)

Prognose

Neuester Wetterbericht von vor 11 Stunden und 58 Minuten, um 14:25 UTC
Gültige Prognose vom 24 um 15 UTC bis 24 um 24 UTC
Wind 7 kt aus West/Nordwest
Sichtweite 10 km oder mehr
keine Wolken unter 1500 m und keine Kumulonimbus oder Gewitterwolken
Übergehend zu
vom 24 um 17 UTC bis 24 um 20 UTC
Sichtweite 10 km oder mehr
Aufgelockert bewölkt in der Höhe von 5000 ft

TAF: LSZB 241425Z 2415/2424 30007KT CAVOK BECMG 2417/2420 9999 SCT050

Wetterbeobachtungen und Prognosen von mehr als 4000 Flughäfen (METAR und TAF Bericht).

Die verfügbaren Stationen werden durch gelbe und rote Markierungen auf der Karte dargestellt.

Führen Sie die Maus auf sie, um den Namen der Station zu sehen.

Darauf klicken, um die Beobachtung von Wetterbeobachtungen und Prognosen zu sehen.

Um die Karte zu ändern : klicken Sie auf den grünen Tasten mit einem schwarzen Kreuz Zum Vergrößern, auf den grünen Button mit einem Gedankenstrich zu verkleinern, oder auf die grünen Pfeile für benachbarte Karten.


METAR-TAF: